createdAt,value
2022-11-24T00:04:01.109Z,1.40
2022-11-24T00:14:05.222Z,1.23
2022-11-24T00:24:10.799Z,1.40
2022-11-24T00:34:15.476Z,0.97
2022-11-24T00:44:19.829Z,0.80
2022-11-24T00:54:22.934Z,1.20
2022-11-24T01:04:27.478Z,0.80
2022-11-24T01:14:31.266Z,1.10
2022-11-24T01:24:36.037Z,1.23
2022-11-24T01:34:39.186Z,0.80
2022-11-24T01:44:43.573Z,0.87
2022-11-24T01:54:50.957Z,1.07
2022-11-24T02:04:56.413Z,0.97
2022-11-24T02:15:00.470Z,1.00
2022-11-24T02:25:10.441Z,1.20
2022-11-24T02:35:14.962Z,1.37
2022-11-24T02:45:18.683Z,1.27
2022-11-24T02:55:23.533Z,0.90
2022-11-24T03:05:26.711Z,1.10
2022-11-24T03:15:31.145Z,0.73
2022-11-24T03:25:34.271Z,0.70
2022-11-24T03:35:38.651Z,0.90
2022-11-24T03:45:46.316Z,0.70
2022-11-24T03:55:51.079Z,0.60
2022-11-24T04:05:54.107Z,1.20
2022-11-24T04:15:58.500Z,0.80
2022-11-24T04:26:01.509Z,0.70
2022-11-24T04:36:06.506Z,0.80
2022-11-24T04:46:11.612Z,1.10
2022-11-24T04:56:16.203Z,1.10
2022-11-24T05:06:19.212Z,1.10
2022-11-24T05:16:23.746Z,0.97
2022-11-24T05:26:27.885Z,0.80
2022-11-24T05:36:57.890Z,1.10
2022-11-24T05:47:00.924Z,1.40
2022-11-24T05:57:05.488Z,1.20
2022-11-24T06:07:09.485Z,1.20
2022-11-24T06:17:14.169Z,1.20
2022-11-24T06:27:17.241Z,1.27
2022-11-24T06:37:21.567Z,1.90
2022-11-24T06:47:24.636Z,1.70
2022-11-24T06:57:31.161Z,1.80
2022-11-24T07:07:34.224Z,1.90
2022-11-24T07:17:39.125Z,1.67
2022-11-24T07:27:42.523Z,2.00
2022-11-24T07:37:47.113Z,1.50
2022-11-24T07:47:50.110Z,1.70
2022-11-24T07:57:54.646Z,2.30
2022-11-24T08:07:57.791Z,1.90
2022-11-24T08:18:03.852Z,1.77
2022-11-24T08:28:06.946Z,2.00
2022-11-24T08:38:11.371Z,1.70
2022-11-24T08:48:14.369Z,2.27
2022-11-24T08:58:18.882Z,2.37
2022-11-24T09:08:21.868Z,2.63
2022-11-24T09:18:30.141Z,1.73
2022-11-24T09:28:33.562Z,2.30
2022-11-24T09:38:38.248Z,2.30
2022-11-24T09:48:44.620Z,2.37
2022-11-24T09:58:51.691Z,2.43
2022-11-24T10:09:24.455Z,2.47
2022-11-24T10:19:41.275Z,2.23
2022-11-24T10:29:44.932Z,2.07
2022-11-24T10:40:00.235Z,2.10
2022-11-24T10:50:05.920Z,2.13
2022-11-24T11:00:32.896Z,2.13
2022-11-24T11:10:36.079Z,2.10
2022-11-24T11:20:40.531Z,1.97
2022-11-24T11:31:17.248Z,1.80
2022-11-24T11:41:34.792Z,1.90
2022-11-24T11:51:49.930Z,2.13
2022-11-24T12:02:31.154Z,2.07
2022-11-24T12:12:52.937Z,1.43
2022-11-24T12:23:04.501Z,1.43
2022-11-24T12:33:32.280Z,2.00
2022-11-24T12:43:39.009Z,1.80
2022-11-24T12:53:43.708Z,1.30
2022-11-24T13:03:58.951Z,1.83
2022-11-24T13:14:06.448Z,2.10
2022-11-24T13:24:26.036Z,1.93
2022-11-24T13:35:02.712Z,1.80
2022-11-24T13:45:45.801Z,2.20
2022-11-24T13:55:58.896Z,1.77
2022-11-24T14:06:04.161Z,1.90
2022-11-24T14:16:15.224Z,2.10
2022-11-24T14:26:22.442Z,1.33
2022-11-24T14:36:25.461Z,1.80
2022-11-24T14:46:29.944Z,1.83
2022-11-24T14:56:35.586Z,1.60
2022-11-24T15:06:40.546Z,1.60
2022-11-24T15:16:43.705Z,2.03
2022-11-24T15:26:48.121Z,2.20
2022-11-24T15:36:51.179Z,1.77
2022-11-24T15:46:55.660Z,2.00
2022-11-24T15:56:58.768Z,2.30
2022-11-24T16:07:06.220Z,2.40
2022-11-24T16:17:09.309Z,2.97
2022-11-24T16:27:13.749Z,3.67
2022-11-24T16:37:16.746Z,4.63
2022-11-24T16:47:21.184Z,5.40
2022-11-24T16:57:24.234Z,4.00
2022-11-24T17:07:28.870Z,3.37
2022-11-24T17:17:31.928Z,3.60
2022-11-24T17:27:36.324Z,3.80
2022-11-24T17:37:39.290Z,4.43
2022-11-24T17:47:43.872Z,4.20
2022-11-24T17:57:46.998Z,4.73
2022-11-24T18:07:51.405Z,4.63
2022-11-24T18:17:54.447Z,5.40
2022-11-24T18:27:58.796Z,6.60
2022-11-24T18:38:01.817Z,5.57
2022-11-24T18:48:06.670Z,5.17
2022-11-24T18:58:09.684Z,4.63
2022-11-24T19:08:14.119Z,6.77
2022-11-24T19:18:17.281Z,6.07
2022-11-24T19:28:21.729Z,6.83
2022-11-24T19:38:29.721Z,6.33
2022-11-24T19:48:35.304Z,7.83
2022-11-24T19:58:38.747Z,7.77
2022-11-24T20:08:44.022Z,7.47
2022-11-24T20:18:48.267Z,6.43
2022-11-24T20:28:54.169Z,6.93
2022-11-24T20:38:59.346Z,5.50
2022-11-24T20:49:04.496Z,5.30
2022-11-24T20:59:07.863Z,4.50
2022-11-24T21:09:12.399Z,4.53
2022-11-24T21:19:18.129Z,4.60
2022-11-24T21:29:25.487Z,4.70
2022-11-24T21:39:28.966Z,5.07
2022-11-24T21:49:33.341Z,4.90
2022-11-24T21:59:36.489Z,5.07
2022-11-24T22:09:40.876Z,4.57
2022-11-24T22:19:43.941Z,4.17
2022-11-24T22:29:53.869Z,5.30
2022-11-24T22:39:57.177Z,4.73
2022-11-24T22:50:01.609Z,4.57
2022-11-24T23:00:05.951Z,3.70
2022-11-24T23:10:11.429Z,4.33
2022-11-24T23:20:15.447Z,4.00
2022-11-24T23:30:19.948Z,3.50
2022-11-24T23:40:23.018Z,4.13
2022-11-24T23:50:27.358Z,3.80
